Time;durP1;ratioP1;P1;durP2;ratioP2;P2;SDS_P1;SDS_P2;PMS_P1;PMS_P2;Temp;Humidity;BMP_temperature;BMP_pressure;BME280_temperature;BME280_humidity;BME280_pressure;Samples;Min_cycle;Max_cycle;Signal;HPM_P1;HPM_P2
2022/01/31 00:00:13;;;;;;;6.97;1.52;;;;;;;1.63;58.86;98649.69;4517018;31;20152;-71
2022/01/31 00:02:41;;;;;;;5.53;1.75;;;;;;;1.61;58.81;98651.53;4516279;31;20516;-71
2022/01/31 00:05:10;;;;;;;6.25;1.12;;;;;;;1.58;58.57;98658.50;4502394;31;20087;-72
2022/01/31 00:07:37;;;;;;;5.10;0.98;;;;;;;1.58;58.61;98660.28;4517000;31;20113;-71
2022/01/31 00:10:11;;;;;;;9.57;1.35;;;;;;;1.53;58.57;98660.53;4516979;31;20114;-71
2022/01/31 00:12:54;;;;;;;5.22;1.17;;;;;;;1.68;57.88;98658.87;4502259;31;20113;-71
2022/01/31 00:15:21;;;;;;;8.75;2.00;;;;;;;1.65;58.09;98659.03;4516802;31;20099;-71
2022/01/31 00:17:49;;;;;;;9.90;1.75;;;;;;;1.60;58.18;98676.50;4502158;31;20431;-71
2022/01/31 00:20:16;;;;;;;14.98;1.83;;;;;;;1.61;58.16;98652.37;4517079;31;20084;-71
2022/01/31 00:22:43;;;;;;;7.18;1.23;;;;;;;1.57;58.17;98656.03;4502270;31;20096;-71
2022/01/31 00:25:11;;;;;;;8.52;1.45;;;;;;;1.41;59.02;98648.28;4516664;31;20091;-71
2022/01/31 00:27:38;;;;;;;8.77;1.45;;;;;;;1.35;59.47;98651.19;4516638;31;20088;-71
2022/01/31 00:30:06;;;;;;;7.20;1.10;;;;;;;1.32;59.69;98641.03;4516667;31;20080;-71
2022/01/31 00:32:35;;;;;;;10.43;1.62;;;;;;;1.34;59.59;98647.75;4502277;31;20087;-71
2022/01/31 00:35:03;;;;;;;5.65;1.33;;;;;;;1.34;59.18;98629.69;4501642;31;20155;-71
2022/01/31 00:37:30;;;;;;;9.68;1.48;;;;;;;1.48;58.62;98628.94;4500514;31;20087;-71
2022/01/31 00:39:57;;;;;;;4.68;1.10;;;;;;;1.43;58.66;98623.22;4500583;31;20171;-71
2022/01/31 00:42:27;;;;;;;4.82;1.33;;;;;;;1.43;58.81;98623.22;4500330;31;20421;-71
2022/01/31 00:45:07;;;;;;;8.18;1.60;;;;;;;1.47;58.23;98627.31;4500591;31;20102;-71
2022/01/31 00:47:37;;;;;;;9.10;1.42;;;;;;;1.55;57.95;98625.12;4500508;31;20593;-71
2022/01/31 00:50:07;;;;;;;3.35;1.10;;;;;;;1.54;57.93;98625.22;4499282;31;20088;-71
2022/01/31 00:52:36;;;;;;;7.20;1.10;;;;;;;1.63;57.30;98611.78;4500486;31;20076;-71
2022/01/31 00:55:04;;;;;;;9.98;1.70;;;;;;;1.58;57.31;98606.87;4500475;31;20151;-71
2022/01/31 00:57:32;;;;;;;7.15;2.00;;;;;;;1.55;57.37;98622.53;4500625;31;20183;-71
2022/01/31 00:59:59;;;;;;;15.00;1.85;;;;;;;1.54;57.37;98615.69;4500641;31;20096;-71
2022/01/31 01:02:27;;;;;;;16.08;1.80;;;;;;;1.51;57.60;98623.63;4500316;31;20114;-72
2022/01/31 01:04:55;;;;;;;8.70;1.30;;;;;;;1.51;57.35;98625.38;4500154;31;20087;-71
2022/01/31 01:07:22;;;;;;;13.10;1.33;;;;;;;1.47;57.38;98640.22;4500492;31;20163;-71
2022/01/31 01:09:49;;;;;;;3.05;0.98;;;;;;;1.45;57.53;98633.44;4500244;31;20144;-71
2022/01/31 01:12:18;;;;;;;9.02;1.35;;;;;;;1.44;57.20;98632.62;4500229;31;20087;-71
2022/01/31 01:14:46;;;;;;;9.80;1.33;;;;;;;1.38;57.65;98641.53;4501306;31;20080;-71
2022/01/31 01:17:14;;;;;;;5.78;1.50;;;;;;;1.35;57.76;98643.47;4502130;31;20095;-71
2022/01/31 01:19:41;;;;;;;6.75;1.65;;;;;;;1.39;57.63;98657.84;4502077;31;20092;-71
2022/01/31 01:22:09;;;;;;;14.57;1.50;;;;;;;1.32;57.89;98659.09;4502306;31;20494;-71
2022/01/31 01:24:37;;;;;;;9.13;1.58;;;;;;;1.22;58.31;98656.97;4502047;31;20092;-72
2022/01/31 01:27:04;;;;;;;14.57;2.17;;;;;;;1.26;57.95;98643.91;4502181;31;20161;-71
2022/01/31 01:29:32;;;;;;;6.72;1.50;;;;;;;1.30;57.69;98645.44;4502040;31;20092;-71
2022/01/31 01:31:59;;;;;;;12.10;2.25;;;;;;;1.34;57.56;98641.78;4501966;31;20114;-71
2022/01/31 01:34:31;;;;;;;3.60;1.20;;;;;;;1.25;57.93;98645.69;4513062;31;20103;-71
2022/01/31 01:37:00;;;;;;;9.40;1.75;;;;;;;1.27;57.88;98646.41;4518150;31;20145;-71
2022/01/31 01:39:28;;;;;;;9.25;1.20;;;;;;;1.32;57.79;98649.59;4518186;31;20436;-71
2022/01/31 01:41:55;;;;;;;10.95;1.73;;;;;;;1.35;57.52;98646.84;4518114;31;20084;-72
2022/01/31 01:44:46;;;;;;;11.35;1.67;;;;;;;1.32;57.89;98639.28;4518019;31;20122;-71
2022/01/31 01:47:18;;;;;;;9.18;1.60;;;;;;;1.31;57.81;98629.03;4518240;31;20107;-72
2022/01/31 01:49:46;;;;;;;17.77;2.05;;;;;;;1.31;58.13;98629.87;4518145;31;20139;-71
2022/01/31 01:52:15;;;;;;;8.40;1.75;;;;;;;1.37;57.77;98637.28;4518221;31;20134;-71
2022/01/31 01:54:43;;;;;;;6.30;1.42;;;;;;;1.36;57.72;98625.31;4517663;31;20126;-72
2022/01/31 01:57:11;;;;;;;14.98;1.62;;;;;;;1.36;58.03;98617.56;4503763;31;20107;-71
2022/01/31 01:59:41;;;;;;;12.43;1.87;;;;;;;1.37;57.65;98608.06;4517922;31;20091;-71
2022/01/31 02:02:09;;;;;;;10.65;1.77;;;;;;;1.37;57.89;98597.75;4517806;31;20433;-71
2022/01/31 02:04:37;;;;;;;7.50;1.85;;;;;;;1.40;58.08;98602.72;4517578;31;20087;-72
2022/01/31 02:07:12;;;;;;;6.95;2.25;;;;;;;1.39;58.45;98608.81;4518015;31;20084;-71
2022/01/31 02:09:45;;;;;;;4.78;1.40;;;;;;;1.32;59.09;98603.16;4517640;31;20148;-71
2022/01/31 02:12:13;;;;;;;10.20;1.25;;;;;;;1.32;59.35;98594.59;4517644;31;20461;-71
2022/01/31 02:14:40;;;;;;;14.40;1.40;;;;;;;1.28;59.74;98593.06;4517853;31;20117;-71
2022/01/31 02:17:11;;;;;;;12.07;1.73;;;;;;;1.33;59.63;98598.81;4517833;31;20396;-71
2022/01/31 02:19:46;;;;;;;8.75;1.58;;;;;;;1.34;59.50;98593.56;4517911;31;20110;-72
2022/01/31 02:22:14;;;;;;;14.45;1.62;;;;;;;1.33;59.74;98602.25;4517845;31;20100;-72
2022/01/31 02:24:43;;;;;;;10.38;1.62;;;;;;;1.31;59.71;98588.56;4517681;31;20222;-71
2022/01/31 02:27:13;;;;;;;7.60;1.77;;;;;;;1.35;59.55;98587.50;4517561;31;20160;-71
2022/01/31 02:29:40;;;;;;;8.23;2.28;;;;;;;1.32;59.61;98579.09;4517426;31;20091;-71
2022/01/31 02:32:07;;;;;;;8.30;1.42;;;;;;;1.36;59.58;98578.84;4517819;31;20440;-72
2022/01/31 02:34:36;;;;;;;10.80;1.75;;;;;;;1.33;59.60;98580.75;4505553;31;20133;-71
2022/01/31 02:37:06;;;;;;;8.77;1.55;;;;;;;1.35;59.70;98568.59;4501655;31;20095;-71
2022/01/31 02:39:33;;;;;;;8.20;1.75;;;;;;;1.40;59.05;98566.59;4501838;31;20442;-71
2022/01/31 02:42:00;;;;;;;8.48;2.50;;;;;;;1.45;58.99;98577.50;4501746;31;20535;-71
2022/01/31 02:44:28;;;;;;;14.02;1.52;;;;;;;1.44;58.58;98560.34;4501451;31;20406;-71
2022/01/31 02:46:57;;;;;;;8.15;1.48;;;;;;;1.46;58.82;98545.59;4501879;31;20119;-71
2022/01/31 02:49:32;;;;;;;9.65;1.60;;;;;;;1.41;59.03;98545.87;4501643;31;20167;-71
2022/01/31 02:52:02;;;;;;;7.72;1.48;;;;;;;1.45;58.91;98536.19;4501846;31;20194;-71
2022/01/31 02:54:31;;;;;;;5.22;1.62;;;;;;;1.40;59.08;98525.31;4501600;31;20087;-71
2022/01/31 02:56:58;;;;;;;8.25;1.85;;;;;;;1.38;58.99;98514.25;4501668;31;20119;-71
2022/01/31 02:59:26;;;;;;;11.82;1.70;;;;;;;1.35;59.40;98524.75;4501629;31;20100;-71
2022/01/31 03:01:53;;;;;;;6.10;1.80;;;;;;;1.38;59.19;98521.97;4501325;31;20524;-71
2022/01/31 03:04:20;;;;;;;5.62;1.58;;;;;;;1.33;59.34;98531.72;4501384;31;20123;-71
2022/01/31 03:06:49;;;;;;;7.93;1.67;;;;;;;1.36;59.14;98518.62;4501588;31;20087;-71
2022/01/31 03:09:19;;;;;;;11.27;1.77;;;;;;;1.29;59.38;98530.22;4501637;31;20092;-71
2022/01/31 03:11:47;;;;;;;10.82;1.50;;;;;;;1.29;59.59;98538.81;4501224;31;20092;-71
2022/01/31 03:14:19;;;;;;;9.27;1.60;;;;;;;1.21;59.60;98531.47;4501546;31;20083;-71
2022/01/31 03:16:48;;;;;;;8.93;2.28;;;;;;;1.28;59.38;98537.13;4501490;31;20115;-71
2022/01/31 03:19:17;;;;;;;13.48;1.73;;;;;;;1.31;59.39;98536.97;4501620;31;20122;-71
2022/01/31 03:21:45;;;;;;;16.60;1.98;;;;;;;1.35;59.33;98527.31;4501506;31;20092;-71
2022/01/31 03:24:13;;;;;;;16.08;2.35;;;;;;;1.39;59.12;98534.81;4501355;31;20472;-71
2022/01/31 03:26:40;;;;;;;5.85;1.40;;;;;;;1.51;58.19;98527.28;4501158;31;20115;-71
2022/01/31 03:29:08;;;;;;;6.95;1.30;;;;;;;1.59;57.90;98520.78;4501550;31;20418;-71
2022/01/31 03:31:35;;;;;;;6.60;1.67;;;;;;;1.60;57.80;98521.59;4501132;31;20548;-71
2022/01/31 03:34:05;;;;;;;8.57;1.20;;;;;;;1.65;57.40;98522.19;4499795;31;20122;-71
2022/01/31 03:36:32;;;;;;;7.45;1.42;;;;;;;1.67;57.53;98522.09;4500472;31;20104;-71
2022/01/31 03:39:00;;;;;;;8.65;1.90;;;;;;;1.67;57.33;98520.34;4501561;31;20157;-71
2022/01/31 03:41:28;;;;;;;10.60;1.90;;;;;;;1.72;57.22;98514.91;4501139;31;20096;-71
2022/01/31 03:43:55;;;;;;;16.50;1.80;;;;;;;1.74;56.97;98513.91;4501213;31;20171;-71
2022/01/31 03:46:23;;;;;;;4.53;1.27;;;;;;;1.73;56.93;98509.66;4501172;31;20108;-72
2022/01/31 03:48:51;;;;;;;4.80;1.33;;;;;;;1.69;57.25;98509.91;4501484;31;20084;-71
2022/01/31 03:51:22;;;;;;;5.03;1.10;;;;;;;1.74;57.04;98513.91;4501026;31;20088;-72
2022/01/31 03:53:50;;;;;;;11.52;1.85;;;;;;;1.73;56.85;98512.22;4501181;31;20107;-71
2022/01/31 03:56:17;;;;;;;11.00;1.87;;;;;;;1.73;56.92;98507.06;4501374;31;20246;-71
2022/01/31 03:58:46;;;;;;;6.68;1.52;;;;;;;1.68;56.67;98497.91;4501222;31;20096;-71
2022/01/31 04:01:13;;;;;;;8.65;1.27;;;;;;;1.64;56.76;98493.88;4501206;31;20100;-71
2022/01/31 04:03:40;;;;;;;14.77;2.30;;;;;;;1.67;56.39;98488.53;4501021;31;20122;-71
2022/01/31 04:06:08;;;;;;;7.55;1.73;;;;;;;1.66;55.87;98490.25;4500869;31;20088;-72
2022/01/31 04:08:35;;;;;;;11.38;2.03;;;;;;;1.68;55.77;98478.09;4500963;31;20088;-71
2022/01/31 04:11:02;;;;;;;8.32;1.80;;;;;;;1.65;55.65;98469.69;4500764;31;20144;-71
2022/01/31 04:13:28;;;;;;;9.95;1.85;;;;;;;1.74;54.84;98472.59;4501024;31;20485;-72
2022/01/31 04:15:56;;;;;;;8.23;2.20;;;;;;;1.73;54.55;98463.16;4500829;31;20131;-71
2022/01/31 04:18:23;;;;;;;7.55;1.80;;;;;;;1.62;55.41;98462.13;4500785;31;20152;-71
2022/01/31 04:20:50;;;;;;;5.53;1.80;;;;;;;1.48;56.16;98445.66;4500725;31;20096;-71
2022/01/31 04:23:20;;;;;;;4.55;1.30;;;;;;;1.37;56.89;98442.88;4500839;31;20151;-71
2022/01/31 04:28:19;;;;;;;14.90;2.30;;;;;;;1.13;57.90;98437.34;4500845;31;20141;-71
2022/01/31 04:30:59;;;;;;;12.63;2.20;;;;;;;1.12;58.00;98444.28;4500638;31;20083;-72
2022/01/31 04:33:27;;;;;;;9.32;1.58;;;;;;;1.01;58.03;98441.44;4499347;31;20214;-72
2022/01/31 04:35:55;;;;;;;12.98;1.95;;;;;;;1.00;58.02;98456.09;4500555;31;20145;-72
2022/01/31 04:38:22;;;;;;;14.27;2.08;;;;;;;1.01;57.56;98459.50;4500760;31;20629;-71
2022/01/31 04:40:49;;;;;;;9.25;2.25;;;;;;;1.00;57.82;98463.84;4500415;31;20128;-71
2022/01/31 04:43:16;;;;;;;8.77;1.55;;;;;;;0.90;58.14;98465.25;4500534;31;20204;-71
2022/01/31 04:45:47;;;;;;;15.48;1.48;;;;;;;0.89;58.67;98461.00;4500705;31;20472;-71
2022/01/31 04:48:17;;;;;;;4.90;0.93;;;;;;;0.85;58.60;98452.63;4499207;31;20099;-72
2022/01/31 04:50:44;;;;;;;8.60;1.45;;;;;;;0.76;59.25;98437.66;4500562;31;20168;-72
2022/01/31 04:53:13;;;;;;;8.50;1.55;;;;;;;0.69;59.59;98421.66;4500380;31;20092;-71
2022/01/31 04:55:40;;;;;;;12.55;1.65;;;;;;;0.63;59.96;98421.19;4499233;31;20133;-71
2022/01/31 04:58:08;;;;;;;4.97;1.70;;;;;;;0.57;60.31;98416.34;4500343;31;20091;-72
2022/01/31 05:00:36;;;;;;;11.48;1.58;;;;;;;0.45;60.43;98423.81;4502844;31;20107;-71
2022/01/31 05:03:09;;;;;;;6.15;1.98;;;;;;;0.48;60.50;98431.37;4514725;31;20092;-72
2022/01/31 05:05:36;;;;;;;8.50;1.80;;;;;;;0.50;60.39;98432.16;4511354;31;20096;-72
2022/01/31 05:08:03;;;;;;;8.23;1.50;;;;;;;0.57;60.27;98442.12;4511831;31;20107;-72
2022/01/31 05:10:33;;;;;;;6.05;1.60;;;;;;;0.62;60.17;98438.41;4514882;31;20125;-72
2022/01/31 05:13:00;;;;;;;7.78;1.83;;;;;;;0.73;60.28;98439.53;4512676;31;20156;-72
2022/01/31 05:15:27;;;;;;;8.82;1.58;;;;;;;0.74;60.08;98448.94;4514291;31;20160;-72
2022/01/31 05:17:54;;;;;;;12.95;1.98;;;;;;;0.76;60.12;98442.81;4503127;31;20155;-72
2022/01/31 05:20:21;;;;;;;12.15;1.80;;;;;;;0.83;59.87;98440.72;4514099;31;20151;-72
2022/01/31 05:22:48;;;;;;;14.05;2.20;;;;;;;0.83;59.89;98432.97;4513907;31;20083;-72
2022/01/31 05:25:15;;;;;;;12.43;2.10;;;;;;;0.95;59.34;98421.16;4514426;31;20527;-72
2022/01/31 05:27:42;;;;;;;5.07;1.25;;;;;;;1.00;59.25;98411.41;4512342;26;20159;-96
2022/01/31 05:30:10;;;;;;;11.52;2.33;;;;;;;0.97;59.42;98402.09;4444055;32;20093;-96
2022/01/31 05:32:37;;;;;;;5.75;1.60;;;;;;;0.91;60.04;98396.44;4457436;32;20475;-96
2022/01/31 05:35:05;;;;;;;12.65;2.10;;;;;;;0.90;60.04;98387.88;4457297;32;20130;-96
2022/01/31 05:37:33;;;;;;;7.70;1.73;;;;;;;0.82;60.60;98385.75;4471227;32;20100;-96
2022/01/31 05:40:00;;;;;;;4.28;1.50;;;;;;;0.76;60.77;98380.94;4443983;32;20521;-96
2022/01/31 05:42:27;;;;;;;17.62;1.75;;;;;;;0.73;60.92;98378.50;4441429;32;20148;-96
2022/01/31 05:44:54;;;;;;;7.07;1.55;;;;;;;0.71;61.27;98372.59;4441806;32;20112;-96
2022/01/31 05:47:21;;;;;;;8.68;2.08;;;;;;;0.70;61.09;98366.62;4441492;32;20174;-96
2022/01/31 05:49:49;;;;;;;11.30;1.98;;;;;;;0.67;61.43;98368.53;4428831;32;20505;-96
2022/01/31 05:52:16;;;;;;;11.15;1.65;;;;;;;0.54;61.86;98352.91;4456592;32;20106;-96
2022/01/31 05:54:43;;;;;;;7.37;1.90;;;;;;;0.53;62.11;98364.16;4447057;32;20169;-96
2022/01/31 05:57:11;;;;;;;11.60;2.00;;;;;;;0.44;62.60;98354.31;4441964;32;20172;-96
2022/01/31 05:59:39;;;;;;;21.05;2.33;;;;;;;0.45;62.68;98353.41;4452272;32;20468;-95
2022/01/31 06:02:07;;;;;;;14.25;2.12;;;;;;;0.40;62.78;98358.00;4459496;32;20152;-96
2022/01/31 06:04:35;;;;;;;13.82;2.30;;;;;;;0.37;63.18;98355.59;4469424;32;20100;-96
2022/01/31 06:07:03;;;;;;;8.40;1.73;;;;;;;0.34;63.38;98354.00;4474898;32;20788;-96
2022/01/31 06:09:36;;;;;;;9.73;1.70;;;;;;;0.33;63.27;98352.34;4440549;32;20261;-96
2022/01/31 06:12:05;;;;;;;8.85;2.20;;;;;;;0.39;63.11;98359.72;4453699;32;20079;-96
2022/01/31 06:14:34;;;;;;;9.00;1.75;;;;;;;0.41;63.15;98360.50;4452365;32;20080;-96
2022/01/31 06:17:03;;;;;;;7.43;1.70;;;;;;;0.40;63.31;98371.72;4483966;32;20110;-96
2022/01/31 06:23:02;;;;;;;7.60;2.08;;;;;;;0.45;63.36;98366.31;4487026;32;20079;-96
2022/01/31 06:29:01;;;;;;;10.13;1.80;;;;;;;0.55;63.11;98382.09;4492954;26;20285;-81
2022/01/31 06:31:29;;;;;;;9.15;2.20;;;;;;;0.65;62.93;98378.09;4446834;32;20486;-79
2022/01/31 06:33:57;;;;;;;16.23;1.85;;;;;;;0.60;63.07;98375.78;4450257;32;20097;-79
2022/01/31 06:36:25;;;;;;;14.80;2.20;;;;;;;0.70;62.76;98376.09;4451696;32;20150;-78
2022/01/31 06:38:53;;;;;;;15.35;2.37;;;;;;;0.71;62.75;98357.13;4445630;32;20158;-79
2022/01/31 06:41:23;;;;;;;11.77;1.70;;;;;;;0.81;62.72;98347.16;4447574;32;20097;-79
2022/01/31 06:43:51;;;;;;;18.75;2.17;;;;;;;0.84;62.80;98340.06;4446013;32;20123;-79
2022/01/31 06:46:19;;;;;;;11.68;1.58;;;;;;;0.79;63.29;98334.34;4451835;32;20124;-79
2022/01/31 06:48:47;;;;;;;20.95;2.12;;;;;;;0.87;63.03;98336.47;4450412;32;20154;-79
2022/01/31 06:51:14;;;;;;;13.93;1.73;;;;;;;0.95;62.98;98328.31;4447502;32;20177;-79
2022/01/31 06:53:42;;;;;;;14.65;2.10;;;;;;;0.96;63.41;98317.09;4449922;32;20473;-79
2022/01/31 06:56:09;;;;;;;5.37;1.50;;;;;;;0.97;63.34;98316.16;4450840;32;20127;-79
2022/01/31 06:58:36;;;;;;;12.98;2.28;;;;;;;1.04;63.32;98302.00;4452598;32;20123;-76
2022/01/31 07:01:05;;;;;;;14.32;1.95;;;;;;;1.07;63.22;98294.06;4446616;32;20085;-76
2022/01/31 07:03:36;;;;;;;7.75;1.83;;;;;;;1.07;63.41;98276.00;4453055;32;20210;-77
2022/01/31 07:06:03;;;;;;;9.05;1.55;;;;;;;1.13;63.61;98280.81;4446905;32;20150;-77
2022/01/31 07:08:30;;;;;;;13.52;2.35;;;;;;;1.12;63.59;98281.75;4453154;32;20234;-77
2022/01/31 07:10:58;;;;;;;14.18;2.17;;;;;;;1.10;63.79;98275.81;4448797;32;20128;-78
2022/01/31 07:13:37;;;;;;;12.65;1.87;;;;;;;1.15;63.72;98289.31;4448353;32;20089;-79
2022/01/31 07:16:05;;;;;;;13.80;1.83;;;;;;;1.24;63.40;98290.50;4445565;32;20093;-76
2022/01/31 07:18:34;;;;;;;15.48;1.95;;;;;;;1.23;63.32;98287.09;4449285;32;20799;-78
2022/01/31 07:21:03;;;;;;;7.47;1.73;;;;;;;1.22;63.27;98297.50;4449368;32;20560;-82
2022/01/31 07:24:02;;;;;;;7.03;1.85;;;;;;;1.32;63.32;98298.63;4448661;32;20097;-77
2022/01/31 07:26:32;;;;;;;10.68;2.30;;;;;;;1.33;63.53;98296.88;4444380;32;20151;-78
2022/01/31 07:28:59;;;;;;;9.32;2.37;;;;;;;1.37;63.53;98293.19;4449900;32;20105;-77
2022/01/31 07:31:26;;;;;;;19.37;2.15;;;;;;;1.34;63.54;98298.53;4447534;32;20579;-79
2022/01/31 07:33:54;;;;;;;11.68;2.35;;;;;;;1.42;63.67;98286.84;4450501;32;20092;-78
2022/01/31 07:36:22;;;;;;;11.77;2.30;;;;;;;1.57;63.01;98279.91;4452351;32;20381;-77
2022/01/31 07:38:49;;;;;;;14.18;2.83;;;;;;;1.71;62.91;98273.09;4452562;32;20085;-78
2022/01/31 07:41:16;;;;;;;15.05;2.58;;;;;;;1.76;63.37;98274.47;4449487;32;20101;-80
2022/01/31 07:43:44;;;;;;;12.25;2.53;;;;;;;1.81;62.98;98274.19;4449612;32;20134;-78
2022/01/31 07:46:12;;;;;;;13.50;3.95;;;;;;;1.83;63.16;98268.94;4440213;32;20093;-78
2022/01/31 07:48:40;;;;;;;9.43;2.97;;;;;;;2.02;62.47;98263.47;4453872;32;20658;-79
2022/01/31 07:51:10;;;;;;;15.15;2.53;;;;;;;2.00;62.88;98263.56;4450929;32;20097;-79
2022/01/31 07:53:38;;;;;;;13.05;3.72;;;;;;;2.09;62.71;98255.22;4448690;32;20128;-79
2022/01/31 07:56:10;;;;;;;9.15;2.55;;;;;;;2.03;62.75;98265.09;4444852;32;20137;-78
2022/01/31 07:58:38;;;;;;;14.35;2.50;;;;;;;2.04;62.27;98274.53;4444384;32;20088;-78
2022/01/31 08:01:07;;;;;;;20.52;3.90;;;;;;;2.06;62.51;98277.81;4449393;32;20093;-77
2022/01/31 08:03:36;;;;;;;16.17;3.53;;;;;;;2.15;62.68;98269.53;4447258;32;20123;-77
2022/01/31 08:06:03;;;;;;;16.58;3.92;;;;;;;2.25;62.56;98270.59;4432734;32;20117;-78
2022/01/31 08:08:32;;;;;;;12.15;2.87;;;;;;;2.31;62.92;98262.44;4441964;32;20135;-78
2022/01/31 08:11:00;;;;;;;10.70;3.78;;;;;;;2.41;62.10;98264.47;4451633;32;20097;-78
2022/01/31 08:13:28;;;;;;;16.87;2.80;;;;;;;2.59;61.57;98257.25;4446984;32;20518;-78
2022/01/31 08:16:09;;;;;;;18.98;3.72;;;;;;;2.66;61.15;98254.19;4445303;32;20129;-77
2022/01/31 08:18:42;;;;;;;15.93;3.47;;;;;;;2.67;61.53;98252.44;4451488;32;20413;-76
2022/01/31 08:21:11;;;;;;;12.10;2.58;;;;;;;2.85;61.04;98242.63;4439159;32;20088;-75
2022/01/31 08:23:39;;;;;;;14.00;2.70;;;;;;;2.85;60.27;98232.28;4450029;32;20077;-77
2022/01/31 08:26:11;;;;;;;16.77;2.90;;;;;;;3.09;60.97;98228.97;4452829;32;20457;-75
2022/01/31 08:28:42;;;;;;;18.02;3.90;;;;;;;3.29;59.96;98230.22;4449439;32;20088;-76
2022/01/31 08:36:11;;;;;;;12.63;2.92;;;;;;;3.34;58.89;98233.31;4446041;32;20104;-77
2022/01/31 08:38:41;;;;;;;10.18;2.50;;;;;;;3.20;59.30;98232.50;4450418;32;20503;-77
2022/01/31 08:41:09;;;;;;;7.87;2.03;;;;;;;3.25;60.02;98234.78;4450352;32;20157;-76
2022/01/31 08:43:37;;;;;;;8.55;2.75;;;;;;;3.31;60.34;98225.78;4450555;32;20101;-78
2022/01/31 08:46:06;;;;;;;17.02;2.75;;;;;;;3.35;60.53;98224.63;4449121;32;20436;-77
2022/01/31 08:48:34;;;;;;;8.98;2.75;;;;;;;3.30;60.18;98231.88;4450667;32;20450;-78
2022/01/31 08:51:03;;;;;;;8.02;2.45;;;;;;;3.18;60.59;98228.38;4447428;32;20105;-81
2022/01/31 08:53:32;;;;;;;10.07;2.58;;;;;;;2.97;60.66;98231.47;4449563;32;20107;-76
2022/01/31 08:56:10;;;;;;;12.10;2.12;;;;;;;2.87;61.14;98232.19;4449575;32;20100;-76
2022/01/31 08:58:44;;;;;;;;;;;;;;;2.94;61.22;98231.66;4446925;32;20084;-79
2022/01/31 09:01:16;;;;;;;8.90;1.92;;;;;;;2.92;61.47;98228.38;4444100;32;19992;-83
2022/01/31 09:04:00;;;;;;;9.80;2.42;;;;;;;2.97;61.02;98213.34;4447511;32;20195;-80
2022/01/31 09:06:33;;;;;;;13.95;2.72;;;;;;;2.97;61.80;98208.19;4447031;32;20516;-82
2022/01/31 09:09:06;;;;;;;10.77;2.37;;;;;;;3.32;60.73;98210.13;4430915;32;22198;-83
2022/01/31 09:11:36;;;;;;;14.45;2.67;;;;;;;3.40;60.84;98207.00;4446896;32;20141;-81
2022/01/31 09:14:03;;;;;;;10.65;2.22;;;;;;;3.53;60.48;98202.66;4447390;32;20128;-79
2022/01/31 09:16:30;;;;;;;10.48;2.87;;;;;;;3.56;60.05;98199.03;4446987;32;20113;-85
2022/01/31 09:18:58;;;;;;;11.82;2.62;;;;;;;3.60;59.14;98197.03;4443146;32;20116;-83
2022/01/31 09:21:25;;;;;;;9.50;3.08;;;;;;;3.68;58.86;98189.53;4450970;32;20413;-83
2022/01/31 09:23:53;;;;;;;12.32;4.00;;;;;;;3.69;59.34;98199.81;4451815;32;20104;-84
2022/01/31 09:26:22;;;;;;;11.73;3.40;;;;;;;3.67;58.84;98196.50;4446531;32;20436;-81
2022/01/31 09:28:51;;;;;;;9.13;2.33;;;;;;;3.63;58.75;98189.88;4446166;32;20147;-76
2022/01/31 09:31:18;;;;;;;10.75;1.92;;;;;;;3.67;58.06;98183.53;4448968;32;20089;-78
2022/01/31 09:33:49;;;;;;;6.30;1.73;;;;;;;3.53;58.14;98186.28;4432591;32;20093;-79
2022/01/31 09:36:17;;;;;;;12.77;1.77;;;;;;;3.55;57.47;98174.03;4450793;32;20086;-76
2022/01/31 09:38:45;;;;;;;12.90;2.50;;;;;;;3.59;57.55;98170.31;4449259;32;20159;-78
2022/01/31 09:41:17;;;;;;;14.43;3.60;;;;;;;3.49;57.63;98146.81;4440959;32;20449;-78
2022/01/31 09:46:45;;;;;;;11.02;2.12;;;;;;;3.83;56.90;98146.19;4452777;32;20162;-79
2022/01/31 09:49:08;;;;;;;6.47;1.33;;;;;;;3.89;56.45;98140.56;4451224;32;20929;-78
2022/01/31 09:51:36;;;;;;;9.57;2.15;;;;;;;3.95;55.96;98134.97;4437736;32;20089;-77
2022/01/31 09:54:04;;;;;;;12.80;2.12;;;;;;;3.97;55.62;98117.53;4452151;32;20143;-80
2022/01/31 09:56:38;;;;;;;9.73;2.20;;;;;;;4.03;55.77;98109.28;4449563;32;20164;-80
2022/01/31 09:59:08;;;;;;;11.10;2.22;;;;;;;4.04;56.10;98108.38;4448302;32;20119;-80
2022/01/31 10:01:40;;;;;;;6.57;2.05;;;;;;;4.07;55.76;98096.94;4446027;32;20096;-83
2022/01/31 10:04:16;;;;;;;12.40;2.90;;;;;;;4.09;55.72;98100.25;4436052;32;20144;-85
2022/01/31 10:06:46;;;;;;;12.82;2.22;;;;;;;4.09;55.52;98095.87;4434534;32;20092;-80
2022/01/31 10:09:33;;;;;;;13.57;2.78;;;;;;;4.17;55.31;98102.28;4452629;32;20096;-81
2022/01/31 10:12:07;;;;;;;11.70;2.00;;;;;;;4.14;54.59;98100.72;4438834;32;20101;-78
2022/01/31 10:17:29;;;;;;;7.25;2.58;;;;;;;4.25;53.83;98090.41;4453281;32;20157;-78
2022/01/31 10:20:25;;;;;;;7.45;2.00;;;;;;;4.12;53.55;98089.66;4453421;32;20101;-80
2022/01/31 10:22:52;;;;;;;21.30;2.20;;;;;;;4.29;54.03;98078.03;4451710;32;20093;-79
2022/01/31 10:25:21;;;;;;;15.52;2.17;;;;;;;4.30;53.73;98079.69;4451732;32;20108;-77
2022/01/31 10:28:15;;;;;;;8.38;2.12;;;;;;;4.59;53.13;98066.28;4453737;32;20113;-78
2022/01/31 10:30:45;;;;;;;11.85;2.20;;;;;;;4.40;53.20;98046.91;4451898;32;20119;-80
2022/01/31 10:33:13;;;;;;;9.50;2.03;;;;;;;4.51;53.38;98053.91;4454223;32;20695;-79
2022/01/31 10:35:41;;;;;;;11.88;2.17;;;;;;;4.40;53.65;98051.28;4451240;32;20085;-78
2022/01/31 10:38:12;;;;;;;12.27;1.90;;;;;;;4.32;52.95;98049.28;4452694;32;20117;-79
2022/01/31 10:56:58;;;;;;;7.25;2.22;;;;;;;4.19;52.66;97994.09;4435408;32;20148;-75
2022/01/31 10:59:40;;;;;;;15.98;2.30;;;;;;;4.21;53.67;97994.81;4452229;32;20090;-76
2022/01/31 11:02:15;;;;;;;12.73;2.40;;;;;;;4.29;52.84;97984.69;4448957;32;20781;-77
2022/01/31 11:04:44;;;;;;;5.12;2.05;;;;;;;4.38;53.43;97989.16;4451470;32;20100;-76
2022/01/31 11:07:17;;;;;;;11.30;2.50;;;;;;;4.24;52.67;97984.22;4450567;32;20224;-76
2022/01/31 11:09:49;;;;;;;10.25;2.62;;;;;;;4.19;53.10;97975.94;4448239;32;20119;-76
2022/01/31 11:12:19;;;;;;;11.57;2.95;;;;;;;4.10;53.18;97980.06;4449467;32;20584;-76
2022/01/31 11:14:47;;;;;;;9.95;2.03;;;;;;;3.99;53.79;97973.09;4449090;32;20456;-76
2022/01/31 11:17:16;;;;;;;10.80;2.17;;;;;;;4.15;53.42;97966.75;4443117;32;20130;-76
2022/01/31 11:19:55;;;;;;;8.23;2.20;;;;;;;4.14;53.34;97949.56;4443679;32;20564;-75
2022/01/31 11:22:29;;;;;;;7.43;2.47;;;;;;;4.20;53.49;97933.53;4434364;32;20149;-78
2022/01/31 11:25:16;;;;;;;8.77;2.20;;;;;;;4.46;52.82;97915.16;4450454;32;20610;-78
2022/01/31 11:27:52;;;;;;;11.07;2.37;;;;;;;4.67;52.43;97908.28;4430934;32;20144;-74
2022/01/31 11:30:22;;;;;;;12.90;2.60;;;;;;;4.69;51.76;97895.19;4443659;32;20215;-76
2022/01/31 11:32:51;;;;;;;13.18;2.30;;;;;;;4.78;51.64;97881.47;4447162;32;20486;-77
2022/01/31 11:35:19;;;;;;;7.85;2.22;;;;;;;4.81;51.66;97878.62;4453837;32;20089;-77
2022/01/31 11:37:46;;;;;;;15.88;2.50;;;;;;;4.85;51.63;97882.63;4435316;32;20756;-77
2022/01/31 11:40:14;;;;;;;10.48;3.22;;;;;;;4.82;51.57;97879.47;4451049;32;20473;-79
2022/01/31 11:42:45;;;;;;;10.40;2.22;;;;;;;4.85;51.56;97879.22;4434026;32;20234;-77
2022/01/31 11:45:25;;;;;;;8.90;2.55;;;;;;;4.71;51.53;97881.16;4448412;32;20568;-77
2022/01/31 11:47:53;;;;;;;13.18;2.97;;;;;;;4.82;51.88;97872.50;4445681;32;20088;-77
2022/01/31 11:50:22;;;;;;;14.40;2.70;;;;;;;4.93;51.93;97843.09;4445591;32;20119;-78
2022/01/31 11:52:55;;;;;;;11.70;2.90;;;;;;;5.14;51.53;97827.53;4449429;32;20117;-77
2022/01/31 11:55:38;;;;;;;7.85;1.83;;;;;;;5.19;52.03;97798.59;4449747;32;20109;-77
2022/01/31 11:58:07;;;;;;;8.45;1.90;;;;;;;5.21;51.11;97840.81;4450359;32;20104;-77
2022/01/31 12:00:38;;;;;;;7.25;2.12;;;;;;;5.03;51.88;97840.59;4450107;32;20128;-77
2022/01/31 12:03:10;;;;;;;11.38;2.03;;;;;;;5.05;51.35;97849.88;4448656;32;20088;-77
2022/01/31 12:05:38;;;;;;;11.82;2.30;;;;;;;4.88;51.74;97842.66;4447891;32;20119;-76
2022/01/31 12:08:15;;;;;;;9.98;2.00;;;;;;;4.94;51.96;97847.34;4449730;32;20148;-77
2022/01/31 12:11:05;;;;;;;9.77;2.55;;;;;;;4.99;51.71;97855.56;4451476;32;20101;-77
2022/01/31 12:13:45;;;;;;;9.60;1.70;;;;;;;5.00;51.05;97878.00;4452674;32;20097;-75
2022/01/31 12:22:11;;;;;;;9.60;1.83;;;;;;;4.85;51.61;97872.25;4452524;32;20127;-77
2022/01/31 12:24:38;;;;;;;11.23;2.17;;;;;;;4.79;51.79;97870.97;4452769;32;20148;-77
2022/01/31 12:27:07;;;;;;;8.43;2.10;;;;;;;4.82;51.77;97858.72;4452520;32;20112;-77
2022/01/31 12:29:37;;;;;;;6.60;1.65;;;;;;;5.06;52.00;97855.91;4437464;32;20513;-77
2022/01/31 12:32:21;;;;;;;7.80;2.15;;;;;;;5.11;51.79;97845.97;4453288;32;20427;-77